Time;durP1;ratioP1;P1;durP2;ratioP2;P2;SDS_P1;SDS_P2;PMS_P1;PMS_P2;Temp;Humidity;BMP_temperature;BMP_pressure;BME280_temperature;BME280_humidity;BME280_pressure;Samples;Min_cycle;Max_cycle;Signal;HPM_P1;HPM_P2
2022/09/02 00:01:01;;;;;;;;;;;;;;;14.19;87.47;102004.03;4977446;28;20116;-76
2022/09/02 00:03:32;;;;;;;;;;;;;;;14.18;87.38;102003.19;4990839;28;20023;-76
2022/09/02 00:05:57;;;;;;;;;;;;;;;14.17;87.47;102001.41;4979267;28;20221;-75
2022/09/02 00:08:23;;;;;;;;;;;;;;;14.18;87.62;101995.19;4978447;28;20024;-76
2022/09/02 00:10:48;;;;;;;;;;;;;;;14.19;87.26;101996.91;4977994;28;19929;-76
2022/09/02 00:13:15;;;;;;;;;;;;;;;14.19;87.60;102002.25;4978518;28;19972;-76
2022/09/02 00:15:41;;;;;;;;;;;;;;;14.19;87.20;101988.03;5009539;28;19980;-76
2022/09/02 00:18:07;;;;;;;;;;;;;;;14.19;87.00;101988.94;4991499;28;20683;-75
2022/09/02 00:20:33;;;;;;;;;;;;;;;14.18;87.26;101989.88;4990582;28;19933;-76
2022/09/02 00:22:58;;;;;;;;;;;;;;;14.17;87.33;101992.59;4979251;28;19922;-76
2022/09/02 00:25:24;;;;;;;;;;;;;;;14.15;86.92;101987.31;4978731;28;19930;-76
2022/09/02 00:27:50;;;;;;;;;;;;;;;14.16;87.03;101986.38;4991558;28;19925;-75
2022/09/02 00:30:15;;;;;;;;;;;;;;;14.19;86.97;101978.28;4991265;28;19932;-75
2022/09/02 00:32:41;;;;;;;;;;;;;;;14.22;86.95;101987.94;5009427;28;19957;-75
2022/09/02 00:35:07;;;;;;;;;;;;;;;14.22;86.49;101982.59;5009752;28;19929;-75
2022/09/02 00:37:32;;;;;;;;;;;;;;;14.20;86.79;101982.66;5009842;28;19930;-76
2022/09/02 00:39:58;;;;;;;;;;;;;;;14.17;86.13;101980.13;4990739;28;20320;-75
2022/09/02 00:42:24;;;;;;;;;;;;;;;14.17;86.31;101973.94;4992447;28;20274;-75
2022/09/02 00:44:50;;;;;;;;;;;;;;;14.12;85.93;101975.00;4977616;28;19929;-75
2022/09/02 00:47:16;;;;;;;;;;;;;;;14.12;85.53;101971.47;4993057;28;20016;-76
2022/09/02 00:49:44;;;;;;;;;;;;;;;14.10;85.98;101979.53;4990721;28;19949;-76
2022/09/02 00:52:09;;;;;;;;;;;;;;;14.08;86.08;101967.19;5010251;28;20372;-75
2022/09/02 00:54:36;;;;;;;;;;;;;;;14.07;86.03;101969.03;4976809;28;19937;-76
2022/09/02 00:57:02;;;;;;;;;;;;;;;14.04;85.55;101968.25;4991493;28;19929;-75
2022/09/02 00:59:41;;;;;;;;;;;;;;;13.99;85.73;101961.34;4990450;28;19930;-75
2022/09/02 01:02:06;;;;;;;;;;;;;;;13.97;86.34;101967.66;4993000;28;20498;-75
2022/09/02 01:04:32;;;;;;;;;;;;;;;13.94;86.13;101955.34;4977773;28;19929;-75
2022/09/02 01:06:57;;;;;;;;;;;;;;;13.94;86.36;101962.47;4978735;28;20412;-75
2022/09/02 01:09:23;;;;;;;;;;;;;;;13.93;86.34;101958.06;4992101;28;19926;-76
2022/09/02 01:11:52;;;;;;;;;;;;;;;13.93;86.06;101960.72;4978581;28;19952;-75
2022/09/02 01:14:17;;;;;;;;;;;;;;;13.92;86.12;101954.56;5007863;28;19937;-76
2022/09/02 01:16:50;;;;;;;;;;;;;;;13.91;86.37;101952.81;5008410;28;21264;-76
2022/09/02 01:19:21;;;;;;;;;;;;;;;13.92;85.97;101959.88;5009006;28;19981;-76
2022/09/02 01:21:48;;;;;;;;;;;;;;;13.92;87.15;101953.66;4994686;28;20531;-76
2022/09/02 01:24:14;;;;;;;;;;;;;;;13.90;86.02;101956.38;4979723;28;19926;-76
2022/09/02 01:26:39;;;;;;;;;;;;;;;13.86;86.42;101954.81;4994366;28;19926;-76
2022/09/02 01:29:05;;;;;;;;;;;;;;;13.81;86.36;101946.13;4981293;28;19972;-76
2022/09/02 01:31:30;;;;;;;;;;;;;;;13.78;86.33;101940.97;4981193;28;19926;-76
2022/09/02 01:33:56;;;;;;;;;;;;;;;13.73;86.05;101948.25;4981919;28;20040;-76
2022/09/02 01:36:22;;;;;;;;;;;;;;;13.68;86.11;101941.31;4981573;28;19944;-76
2022/09/02 01:38:47;;;;;;;;;;;;;;;13.64;86.25;101942.38;4981865;28;19933;-75
2022/09/02 01:41:13;;;;;;;;;;;;;;;13.60;86.33;101942.56;4981374;28;19937;-76
2022/09/02 01:43:38;;;;;;;;;;;;;;;13.57;86.35;101943.56;4997361;28;19934;-75
2022/09/02 01:46:04;;;;;;;;;;;;;;;13.53;86.50;101934.84;4994252;28;20820;-75
2022/09/02 01:48:29;;;;;;;;;;;;;;;13.50;86.20;101936.78;4981752;28;20512;-76
2022/09/02 01:50:56;;;;;;;;;;;;;;;13.47;86.27;101923.56;4981604;28;20518;-76
2022/09/02 01:53:21;;;;;;;;;;;;;;;13.46;86.28;101929.81;4981228;28;19980;-76
2022/09/02 01:55:47;;;;;;;;;;;;;;;13.43;86.47;101922.81;4981187;28;19934;-76
2022/09/02 01:58:13;;;;;;;;;;;;;;;13.43;86.83;101918.38;4979989;28;19929;-76
2022/09/02 02:00:38;;;;;;;;;;;;;;;13.41;86.44;101925.50;5010969;28;19944;-76
2022/09/02 02:03:04;;;;;;;;;;;;;;;13.39;86.42;101919.41;4980052;28;20057;-76
2022/09/02 02:05:29;;;;;;;;;;;;;;;13.40;86.90;101915.81;4982497;28;20389;-76
2022/09/02 02:07:55;;;;;;;;;;;;;;;13.37;87.18;101910.63;5009736;28;19932;-76
2022/09/02 02:10:20;;;;;;;;;;;;;;;13.36;87.14;101919.53;4987017;28;19933;-75
2022/09/02 02:12:46;;;;;;;;;;;;;;;13.35;87.05;101919.59;4993994;28;21371;-76
2022/09/02 02:15:13;;;;;;;;;;;;;;;13.31;87.13;101914.38;4979784;28;19929;-76
2022/09/02 02:17:39;;;;;;;;;;;;;;;13.30;87.11;101919.78;4979917;28;19969;-76
2022/09/02 02:20:06;;;;;;;;;;;;;;;13.27;87.64;101918.09;4995769;28;20036;-76
2022/09/02 02:22:31;;;;;;;;;;;;;;;13.25;86.72;101916.44;4995908;28;19937;-76
2022/09/02 02:24:57;;;;;;;;;;;;;;;13.23;87.56;101910.31;4992468;28;19933;-77
2022/09/02 02:27:22;;;;;;;;;;;;;;;13.20;88.26;101913.09;5012797;28;20441;-76
2022/09/02 02:29:48;;;;;;;;;;;;;;;13.19;88.40;101914.88;4994923;28;20420;-76
2022/09/02 02:32:13;;;;;;;;;;;;;;;13.20;89.17;101907.75;4980976;28;20016;-76
2022/09/02 02:34:39;;;;;;;;;;;;;;;13.20;89.34;101910.41;4979691;28;19934;-76
2022/09/02 02:37:04;;;;;;;;;;;;;;;13.20;89.38;101911.31;4977697;28;19933;-76
2022/09/02 02:39:30;;;;;;;;;;;;;;;13.20;89.50;101902.44;4993423;28;19976;-76
2022/09/02 02:41:55;;;;;;;;;;;;;;;13.19;89.43;101901.59;5009537;28;20368;-76
2022/09/02 02:44:21;;;;;;;;;;;;;;;13.16;89.40;101899.91;4980057;28;19929;-75
2022/09/02 02:46:47;;;;;;;;;;;;;;;13.15;89.11;101905.28;4981417;28;19930;-76
2022/09/02 02:49:12;;;;;;;;;;;;;;;13.13;88.59;101902.69;4980118;28;19940;-76
2022/09/02 02:51:38;;;;;;;;;;;;;;;13.13;89.00;101901.84;4993201;28;20507;-75
2022/09/02 02:54:03;;;;;;;;;;;;;;;13.11;89.10;101901.88;4980592;28;19973;-75
2022/09/02 02:56:29;;;;;;;;;;;;;;;13.11;90.03;101898.34;4979863;28;19921;-76
2022/09/02 02:58:55;;;;;;;;;;;;;;;13.08;90.22;101895.81;5010494;28;19932;-76
2022/09/02 03:01:20;;;;;;;;;;;;;;;13.07;89.67;101894.09;4978749;28;19930;-76
2022/09/02 03:03:46;;;;;;;;;;;;;;;13.05;89.82;101896.81;4992511;28;20032;-76
2022/09/02 03:06:12;;;;;;;;;;;;;;;13.03;89.89;101893.34;4993091;28;19925;-75
2022/09/02 03:08:37;;;;;;;;;;;;;;;13.00;89.48;101883.72;5010834;28;20029;-77
2022/09/02 03:11:05;;;;;;;;;;;;;;;13.00;89.48;101888.16;4979383;28;21228;-75
2022/09/02 03:13:32;;;;;;;;;;;;;;;12.99;89.64;101894.38;4975587;28;19926;-76
2022/09/02 03:15:57;;;;;;;;;;;;;;;12.99;89.45;101886.41;5010987;28;20060;-76
2022/09/02 03:18:23;;;;;;;;;;;;;;;12.98;89.16;101885.56;4979608;28;20007;-76
2022/09/02 03:20:48;;;;;;;;;;;;;;;12.98;89.43;101893.53;4979755;28;20277;-76
2022/09/02 03:23:14;;;;;;;;;;;;;;;12.99;89.27;101881.97;4979625;28;20534;-76
2022/09/02 03:25:41;;;;;;;;;;;;;;;12.99;89.19;101881.97;4979691;28;20398;-76
2022/09/02 03:28:06;;;;;;;;;;;;;;;12.99;89.43;101887.28;4979467;28;19933;-75
2022/09/02 03:30:33;;;;;;;;;;;;;;;13.01;89.61;101879.25;4990576;28;19949;-76
2022/09/02 03:32:59;;;;;;;;;;;;;;;13.02;88.73;101879.19;4979959;28;19929;-76
2022/09/02 03:35:25;;;;;;;;;;;;;;;13.03;89.52;101880.91;4979859;28;19933;-76
2022/09/02 03:37:50;;;;;;;;;;;;;;;13.04;89.22;101881.78;4979794;28;19932;-76
2022/09/02 03:40:17;;;;;;;;;;;;;;;13.03;89.00;101874.75;4992507;28;19925;-76
2022/09/02 03:42:42;;;;;;;;;;;;;;;13.04;88.95;101876.47;4979182;28;19925;-76
2022/09/02 03:45:09;;;;;;;;;;;;;;;13.03;88.78;101874.75;4978611;28;19930;-76
2022/09/02 03:47:34;;;;;;;;;;;;;;;13.02;88.46;101862.38;5009019;28;19936;-76
2022/09/02 03:50:01;;;;;;;;;;;;;;;13.00;89.42;101867.75;4979910;28;19930;-76
2022/09/02 03:52:27;;;;;;;;;;;;;;;13.01;88.91;101863.28;4985207;28;19930;-76
2022/09/02 03:54:53;;;;;;;;;;;;;;;13.00;89.03;101858.91;4993134;28;19930;-76
2022/09/02 03:57:19;;;;;;;;;;;;;;;12.98;88.64;101855.44;4979016;28;19936;-76
2022/09/02 03:59:45;;;;;;;;;;;;;;;12.96;88.68;101852.84;4993500;28;20399;-76
2022/09/02 04:02:10;;;;;;;;;;;;;;;12.95;89.34;101853.78;4970437;28;19934;-76
2022/09/02 04:04:36;;;;;;;;;;;;;;;12.92;88.85;101856.56;5009932;28;19987;-76
2022/09/02 04:07:01;;;;;;;;;;;;;;;12.92;88.82;101845.06;4991177;28;19941;-76
2022/09/02 04:09:26;;;;;;;;;;;;;;;12.90;89.00;101853.09;4977901;28;19926;-76
2022/09/02 04:11:52;;;;;;;;;;;;;;;12.88;88.88;101842.53;4979820;28;20298;-76
2022/09/02 04:14:20;;;;;;;;;;;;;;;12.86;88.79;101852.34;4977721;28;19930;-76
2022/09/02 04:16:45;;;;;;;;;;;;;;;12.82;88.41;101839.25;4991283;28;20365;-76
2022/09/02 04:19:12;;;;;;;;;;;;;;;12.79;88.35;101844.69;4979174;28;19940;-76
2022/09/02 04:21:38;;;;;;;;;;;;;;;12.72;88.68;101844.91;4990612;28;19937;-76
2022/09/02 04:24:04;;;;;;;;;;;;;;;12.71;89.02;101850.28;4977793;28;19925;-76
2022/09/02 04:26:29;;;;;;;;;;;;;;;12.68;89.19;101843.28;5010506;28;20292;-76
2022/09/02 04:28:55;;;;;;;;;;;;;;;12.66;88.67;101845.16;5008165;28;19930;-75
2022/09/02 04:31:21;;;;;;;;;;;;;;;12.63;89.49;101851.44;4978859;28;19934;-76
2022/09/02 04:33:46;;;;;;;;;;;;;;;12.60;89.05;101846.22;4979792;28;19934;-76
2022/09/02 04:36:13;;;;;;;;;;;;;;;12.57;89.14;101841.06;4975643;28;20983;-75
2022/09/02 04:38:38;;;;;;;;;;;;;;;12.56;88.81;101849.94;5010486;28;20503;-76
2022/09/02 04:41:07;;;;;;;;;;;;;;;12.54;89.32;101849.16;4992137;28;19937;-75
2022/09/02 04:43:33;;;;;;;;;;;;;;;12.53;89.83;101843.88;4979759;28;19925;-76
2022/09/02 04:46:00;;;;;;;;;;;;;;;12.50;89.60;101845.72;4978926;28;20338;-76
2022/09/02 04:48:25;;;;;;;;;;;;;;;12.48;90.02;101838.75;4979947;28;19929;-76
2022/09/02 04:50:51;;;;;;;;;;;;;;;12.45;89.84;101834.41;4979466;28;19929;-75
2022/09/02 04:53:16;;;;;;;;;;;;;;;12.45;89.99;101833.53;4979258;28;20267;-76
2022/09/02 04:55:42;;;;;;;;;;;;;;;12.44;89.89;101832.69;4991722;28;20308;-76
2022/09/02 04:58:08;;;;;;;;;;;;;;;12.44;90.46;101831.81;4995577;28;20301;-76
2022/09/02 05:00:33;;;;;;;;;;;;;;;12.44;90.72;101840.66;5014503;28;19929;-75
2022/09/02 05:02:59;;;;;;;;;;;;;;;12.42;90.42;101836.31;4981898;28;20427;-75
2022/09/02 05:05:24;;;;;;;;;;;;;;;12.44;91.12;101831.81;4982957;28;19930;-76
2022/09/02 05:07:50;;;;;;;;;;;;;;;12.43;90.87;101835.41;5015030;28;19941;-75
2022/09/02 05:10:15;;;;;;;;;;;;;;;12.43;91.00;101832.75;4982018;28;19925;-76
2022/09/02 05:12:41;;;;;;;;;;;;;;;12.45;91.37;101834.41;5014854;28;19957;-76
2022/09/02 05:15:07;;;;;;;;;;;;;;;12.46;91.04;101835.28;4982208;28;20411;-76
2022/09/02 05:17:34;;;;;;;;;;;;;;;12.47;91.13;101839.66;4983297;28;19925;-76
2022/09/02 05:20:00;;;;;;;;;;;;;;;12.48;90.49;101836.94;5012732;28;19930;-76
2022/09/02 05:22:28;;;;;;;;;;;;;;;12.48;91.19;101831.63;4979378;28;19926;-76
2022/09/02 05:24:54;;;;;;;;;;;;;;;12.49;90.96;101830.72;4982766;28;20633;-76
2022/09/02 05:27:19;;;;;;;;;;;;;;;12.49;90.80;101835.16;4983459;28;19988;-76
2022/09/02 05:29:44;;;;;;;;;;;;;;;12.50;90.59;101829.78;4982171;28;20041;-76
2022/09/02 05:32:10;;;;;;;;;;;;;;;12.53;90.69;101835.91;4983420;28;19925;-76
2022/09/02 05:34:35;;;;;;;;;;;;;;;12.56;90.18;101830.47;4991873;28;20391;-76
2022/09/02 05:37:01;;;;;;;;;;;;;;;12.59;89.62;101831.22;4981850;28;19937;-76
2022/09/02 05:39:27;;;;;;;;;;;;;;;12.63;89.58;101827.53;5011648;28;19972;-76
2022/09/02 05:41:53;;;;;;;;;;;;;;;12.66;90.02;101826.56;4982849;28;19937;-76
2022/09/02 05:44:21;;;;;;;;;;;;;;;12.68;89.16;101827.34;4981427;28;19925;-76
2022/09/02 05:46:47;;;;;;;;;;;;;;;12.71;89.20;101821.06;5012360;28;20419;-76
2022/09/02 05:49:20;;;;;;;;;;;;;;;12.72;89.47;101823.66;4988390;28;20005;-76
2022/09/02 05:51:46;;;;;;;;;;;;;;;12.76;88.94;101829.72;4991582;28;19933;-76
2022/09/02 05:54:13;;;;;;;;;;;;;;;12.78;88.84;101833.19;4981595;28;19925;-76
2022/09/02 05:56:40;;;;;;;;;;;;;;;12.81;88.75;101829.53;4995118;28;21298;-76
2022/09/02 05:59:06;;;;;;;;;;;;;;;12.84;89.14;101827.63;5010547;28;20387;-76
2022/09/02 06:01:32;;;;;;;;;;;;;;;12.88;89.46;101825.72;4981926;28;20333;-76
2022/09/02 06:03:58;;;;;;;;;;;;;;;12.93;88.84;101826.41;5013108;28;19936;-76
2022/09/02 06:06:23;;;;;;;;;;;;;;;12.98;88.44;101818.25;4981625;28;19977;-76
2022/09/02 06:08:49;;;;;;;;;;;;;;;13.03;88.50;101821.59;4992976;28;19930;-76
2022/09/02 06:11:16;;;;;;;;;;;;;;;13.08;88.28;101816.91;4977849;28;19929;-78
2022/09/02 06:13:42;;;;;;;;;;;;;;;13.14;87.74;101819.34;5014018;28;19957;-79
2022/09/02 06:16:09;;;;;;;;;;;;;;;13.20;88.33;101818.25;5010416;28;19925;-84
2022/09/02 06:18:37;;;;;;;;;;;;;;;13.27;88.31;101818.84;5011890;28;19938;-79
2022/09/02 06:21:03;;;;;;;;;;;;;;;13.33;87.95;101812.41;4993982;28;20487;-81
2022/09/02 06:23:29;;;;;;;;;;;;;;;13.39;87.45;101810.34;4982948;28;19934;-82
2022/09/02 06:26:02;;;;;;;;;;;;;;;13.47;87.37;101814.50;5013525;28;19932;-82
2022/09/02 06:28:27;;;;;;;;;;;;;;;13.55;87.02;101815.03;4982643;28;20461;-80
2022/09/02 06:30:52;;;;;;;;;;;;;;;13.64;87.70;101813.78;5013078;28;19926;-83
2022/09/02 06:33:18;;;;;;;;;;;;;;;13.74;86.93;101816.94;4995073;28;19937;-83
2022/09/02 06:35:45;;;;;;;;;;;;;;;13.83;86.92;101816.50;4981831;28;19934;-84
2022/09/02 06:38:11;;;;;;;;;;;;;;;14.02;86.16;101821.03;5012231;28;19934;-82
2022/09/02 06:40:44;;;;;;;;;;;;;;;14.26;86.24;101809.28;4981943;28;19925;-83
2022/09/02 06:43:09;;;;;;;;;;;;;;;14.52;85.19;101820.53;4980556;28;21896;-84
2022/09/02 06:45:38;;;;;;;;;;;;;;;14.73;84.87;101814.25;4980909;28;19957;-84
2022/09/02 06:48:04;;;;;;;;;;;;;;;14.88;83.37;101818.88;5011585;28;21704;-85
2022/09/02 06:50:29;;;;;;;;;;;;;;;15.01;82.99;101811.16;4980996;28;19930;-83
2022/09/02 06:52:55;;;;;;;;;;;;;;;15.14;82.61;101813.22;5012427;28;19936;-82
2022/09/02 06:55:20;;;;;;;;;;;;;;;15.25;82.34;101810.03;4979754;28;20380;-82
2022/09/02 06:57:46;;;;;;;;;;;;;;;15.32;81.86;101809.63;4991917;28;20028;-81
2022/09/02 07:00:11;;;;;;;;;;;;;;;15.35;81.45;101808.59;4975149;28;19929;-83
2022/09/02 07:02:37;;;;;;;;;;;;;;;15.37;81.48;101806.75;5017018;28;20352;-82
2022/09/02 07:05:08;;;;;;;;;;;;;;;15.41;81.14;101808.31;4988939;28;19933;-84
2022/09/02 07:07:37;;;;;;;;;;;;;;;15.47;81.43;101813.34;4992491;28;19937;-83
2022/09/02 07:10:04;;;;;;;;;;;;;;;15.51;80.82;101811.38;4991897;28;19933;-85
2022/09/02 07:12:30;;;;;;;;;;;;;;;15.57;81.10;101807.50;5025474;28;19981;-84
2022/09/02 07:14:55;;;;;;;;;;;;;;;15.61;80.94;101801.97;5024340;28;19997;-83
2022/09/02 07:17:24;;;;;;;;;;;;;;;15.67;80.10;101794.56;5008621;28;19926;-83
2022/09/02 07:19:49;;;;;;;;;;;;;;;15.76;80.29;101791.41;5000526;28;19934;-84
2022/09/02 07:22:15;;;;;;;;;;;;;;;15.81;79.99;101793.84;4981816;28;19940;-83
2022/09/02 07:24:40;;;;;;;;;;;;;;;15.86;80.32;101803.31;5011238;28;19933;-84
2022/09/02 07:27:06;;;;;;;;;;;;;;;15.94;80.01;101802.97;5013846;28;20339;-84
2022/09/02 07:29:31;;;;;;;;;;;;;;;16.05;80.23;101791.72;4996931;28;20698;-83
2022/09/02 07:31:57;;;;;;;;;;;;;;;16.16;80.00;101788.47;4983136;28;21040;-83
2022/09/02 07:34:23;;;;;;;;;;;;;;;16.25;79.39;101792.44;4994793;28;20377;-84
2022/09/02 07:36:48;;;;;;;;;;;;;;;16.32;79.81;101788.47;4982455;28;19961;-84
2022/09/02 07:39:14;;;;;;;;;;;;;;;16.40;79.86;101790.75;5014171;28;19932;-83
2022/09/02 07:41:40;;;;;;;;;;;;;;;16.50;79.06;101799.13;4995268;28;20008;-83
2022/09/02 07:44:06;;;;;;;;;;;;;;;16.60;79.33;101791.44;4978811;28;19926;-79
2022/09/02 07:46:32;;;;;;;;;;;;;;;16.70;77.98;101788.16;4993999;28;20013;-80
2022/09/02 07:48:58;;;;;;;;;;;;;;;16.78;77.50;101800.25;4979951;28;19972;-80
2022/09/02 07:51:24;;;;;;;;;;;;;;;16.88;77.38;101790.72;4996827;28;19930;-82
2022/09/02 07:53:50;;;;;;;;;;;;;;;16.96;77.42;101792.97;4980817;28;19945;-81
2022/09/02 07:56:16;;;;;;;;;;;;;;;17.06;77.51;101788.81;4984196;28;20472;-81
2022/09/02 07:58:42;;;;;;;;;;;;;;;17.18;77.78;101794.44;4980885;28;19930;-80
2022/09/02 08:01:08;;;;;;;;;;;;;;;17.28;76.36;101798.31;5011670;28;20018;-80
2022/09/02 08:03:34;;;;;;;;;;;;;;;17.36;76.60;101787.13;4995498;28;21715;-81
2022/09/02 08:05:59;;;;;;;;;;;;;;;17.48;75.44;101789.06;4992859;28;19937;-83
2022/09/02 08:08:26;;;;;;;;;;;;;;;17.62;75.29;101784.69;4994015;28;19934;-83
2022/09/02 08:10:53;;;;;;;;;;;;;;;17.76;75.54;101782.03;5012174;28;19926;-82
2022/09/02 08:13:19;;;;;;;;;;;;;;;17.91;74.92;101779.38;4984512;28;20424;-83
2022/09/02 08:15:44;;;;;;;;;;;;;;;18.04;74.45;101777.66;4972385;28;20221;-83
2022/09/02 08:18:10;;;;;;;;;;;;;;;18.18;74.39;101781.31;4993839;28;19937;-83
2022/09/02 08:20:35;;;;;;;;;;;;;;;18.29;73.12;101780.63;4992265;28;19930;-79
2022/09/02 08:23:05;;;;;;;;;;;;;;;18.41;72.39;101781.69;4995373;28;19944;-81
2022/09/02 08:25:33;;;;;;;;;;;;;;;18.57;72.85;101781.53;4991655;28;19989;-80
2022/09/02 08:27:59;;;;;;;;;;;;;;;18.69;72.15;101769.16;5010527;28;20451;-80
2022/09/02 08:30:24;;;;;;;;;;;;;;;18.80;72.15;101776.50;5008763;28;19972;-82
2022/09/02 08:32:50;;;;;;;;;;;;;;;18.97;70.99;101772.72;4994095;28;20289;-80
2022/09/02 08:35:15;;;;;;;;;;;;;;;19.10;71.43;101773.66;4980757;28;20012;-81
2022/09/02 08:37:41;;;;;;;;;;;;;;;19.21;70.88;101772.03;4993260;28;19976;-81
2022/09/02 08:40:07;;;;;;;;;;;;;;;19.33;69.83;101773.91;4977666;28;19938;-82
2022/09/02 08:42:49;;;;;;;;;;;;;;;19.45;68.32;101777.56;5010353;28;19933;-80
2022/09/02 08:45:24;;;;;;;;;;;;;;;19.58;68.81;101771.34;4993336;28;20008;-82
2022/09/02 08:47:56;;;;;;;;;;;;;;;19.72;68.26;101765.03;4979242;28;19926;-81
2022/09/02 08:50:22;;;;;;;;;;;;;;;19.90;68.46;101762.88;5010270;28;20481;-81
2022/09/02 08:53:05;;;;;;;;;;;;;;;20.02;67.48;101766.53;5010665;28;19930;-81
2022/09/02 08:55:54;;;;;;;;;;;;;;;20.11;67.13;101755.16;5009173;28;19925;-81
2022/09/02 08:58:22;;;;;;;;;;;;;;;20.25;67.88;101762.19;5006901;28;19968;-82
2022/09/02 09:00:53;;;;;;;;;;;;;;;20.32;66.01;101755.41;5010648;28;19980;-80
2022/09/02 09:03:24;;;;;;;;;;;;;;;20.43;65.98;101757.31;4985752;28;19925;-81
2022/09/02 09:05:59;;;;;;;;;;;;;;;20.51;66.20;101748.69;5010997;28;20412;-80
2022/09/02 09:08:40;;;;;;;;;;;;;;;20.58;66.06;101749.94;4979484;28;19933;-80
2022/09/02 09:11:09;;;;;;;;;;;;;;;20.66;65.69;101757.47;4994893;28;19930;-80
2022/09/02 09:13:34;;;;;;;;;;;;;;;20.79;65.56;101757.38;4978735;28;20373;-81
2022/09/02 09:16:00;;;;;;;;;;;;;;;20.90;64.50;101751.22;5010214;28;19933;-80
2022/09/02 09:18:45;;;;;;;;;;;;;;;21.07;64.99;101746.41;4979310;28;19926;-80
2022/09/02 09:21:13;;;;;;;;;;;;;;;21.21;63.67;101746.22;4993150;28;19979;-79
2022/09/02 09:23:39;;;;;;;;;;;;;;;21.30;63.24;101745.50;4976085;28;19930;-81
2022/09/02 09:26:06;;;;;;;;;;;;;;;21.43;63.96;101744.56;4992324;28;19940;-82
2022/09/02 09:28:35;;;;;;;;;;;;;;;21.50;62.35;101740.41;5008502;28;20274;-81
2022/09/02 09:31:01;;;;;;;;;;;;;;;21.57;64.09;101740.75;4979003;28;20270;-81
2022/09/02 09:33:26;;;;;;;;;;;;;;;21.61;60.29;101728.78;4977650;28;19934;-80
2022/09/02 09:35:52;;;;;;;;;;;;;;;21.67;62.55;101725.59;5010015;28;19949;-80
2022/09/02 09:38:38;;;;;;;;;;;;;;;21.78;63.00;101730.16;4978921;28;19939;-81
2022/09/02 09:41:20;;;;;;;;;;;;;;;21.87;62.30;101730.41;4978257;28;19925;-80
2022/09/02 09:43:46;;;;;;;;;;;;;;;21.91;61.15;101721.09;5010530;28;20068;-77
2022/09/02 09:46:25;;;;;;;;;;;;;;;21.91;63.63;101721.09;5012306;28;20386;-78
2022/09/02 09:48:51;;;;;;;;;;;;;;;21.91;61.93;101716.59;4982969;28;19929;-79
2022/09/02 09:51:19;;;;;;;;;;;;;;;21.96;63.14;101722.44;4981837;28;19940;-79
2022/09/02 09:53:44;;;;;;;;;;;;;;;21.99;60.08;101718.66;4997102;28;20109;-78
2022/09/02 09:56:12;;;;;;;;;;;;;;;21.99;58.91;101718.66;5013922;28;20027;-79
2022/09/02 09:58:38;;;;;;;;;;;;;;;21.97;61.16;101705.28;5014288;28;20408;-77
2022/09/02 10:01:23;;;;;;;;;;;;;;;21.99;62.67;101713.25;5013372;28;19929;-78
2022/09/02 10:03:49;;;;;;;;;;;;;;;21.93;60.14;101713.75;5014233;28;19984;-79
2022/09/02 10:06:17;;;;;;;;;;;;;;;21.94;59.47;101710.06;4983091;28;20028;-80
2022/09/02 10:09:03;;;;;;;;;;;;;;;21.93;58.12;101708.34;5011647;28;19930;-72
2022/09/02 10:11:36;;;;;;;;;;;;;;;21.86;57.55;101704.44;4982296;28;19929;-73
2022/09/02 10:14:02;;;;;;;;;;;;;;;21.82;58.67;101703.84;4982710;28;19926;-73
2022/09/02 10:16:31;;;;;;;;;;;;;;;21.77;58.14;101706.03;5012363;28;19957;-73
2022/09/02 10:19:08;;;;;;;;;;;;;;;21.77;58.76;101706.03;4981394;28;19988;-73
2022/09/02 10:21:33;;;;;;;;;;;;;;;21.78;57.75;101697.84;4981807;28;19980;-73
2022/09/02 10:23:59;;;;;;;;;;;;;;;21.76;57.62;101705.19;4981861;28;19925;-73
2022/09/02 10:26:28;;;;;;;;;;;;;;;21.77;57.87;101687.16;4980200;28;19949;-72
2022/09/02 10:29:05;;;;;;;;;;;;;;;21.79;56.69;101685.22;5010170;28;19929;-72
2022/09/02 10:31:41;;;;;;;;;;;;;;;21.84;59.29;101686.56;4980972;28;19925;-72
2022/09/02 10:34:10;;;;;;;;;;;;;;;21.83;57.40;101682.16;4981923;28;19930;-72
2022/09/02 10:36:35;;;;;;;;;;;;;;;21.83;56.66;101674.06;4994543;28;19930;-72
2022/09/02 10:39:16;;;;;;;;;;;;;;;21.80;56.59;101682.38;5012825;28;19936;-73
2022/09/02 10:41:44;;;;;;;;;;;;;;;21.81;55.97;101678.75;4981928;28;20309;-72
2022/09/02 10:44:16;;;;;;;;;;;;;;;21.77;55.64;101671.88;5011766;28;20474;-72
2022/09/02 10:46:51;;;;;;;;;;;;;;;21.78;55.60;101664.66;5012806;28;20004;-72
2022/09/02 10:49:35;;;;;;;;;;;;;;;21.77;55.34;101662.91;4980512;28;19933;-72
2022/09/02 10:52:22;;;;;;;;;;;;;;;21.76;54.78;101659.38;4981355;28;20016;-72
2022/09/02 10:55:02;;;;;;;;;;;;;;;21.73;55.77;101654.22;5011668;28;20336;-70
2022/09/02 10:57:30;;;;;;;;;;;;;;;21.77;56.38;101654.84;4981235;28;19932;-71
2022/09/02 10:59:55;;;;;;;;;;;;;;;21.82;55.66;101652.63;5011785;28;20457;-71
2022/09/02 11:02:24;;;;;;;;;;;;;;;21.84;53.93;101651.53;4981376;28;19988;-72
2022/09/02 11:04:55;;;;;;;;;;;;;;;21.85;53.75;101647.00;4980935;28;19936;-72
2022/09/02 11:07:23;;;;;;;;;;;;;;;21.88;52.53;101640.47;5010074;28;19930;-72
2022/09/02 11:09:51;;;;;;;;;;;;;;;21.89;53.09;101642.22;4993713;28;20024;-72
2022/09/02 11:12:21;;;;;;;;;;;;;;;21.95;54.66;101647.13;4993703;28;19961;-72
2022/09/02 11:14:50;;;;;;;;;;;;;;;22.02;55.61;101640.25;4986121;28;19953;-72
2022/09/02 11:17:15;;;;;;;;;;;;;;;22.10;54.41;101636.88;4980928;28;20012;-72
2022/09/02 11:20:01;;;;;;;;;;;;;;;22.20;52.29;101637.00;4980820;28;20503;-73
2022/09/02 11:22:28;;;;;;;;;;;;;;;22.26;53.29;101633.78;4980468;28;20309;-72
2022/09/02 11:24:59;;;;;;;;;;;;;;;22.25;53.48;101634.78;4993359;28;19987;-72
2022/09/02 11:27:33;;;;;;;;;;;;;;;22.28;52.54;101630.97;4980592;28;19956;-72
2022/09/02 11:30:08;;;;;;;;;;;;;;;22.31;54.14;101639.66;4980157;28;19932;-72
2022/09/02 11:32:44;;;;;;;;;;;;;;;22.31;52.66;101631.56;4995487;28;19926;-73
2022/09/02 11:35:11;;;;;;;;;;;;;;;22.29;53.05;101628.16;5011609;28;19969;-72
2022/09/02 11:37:37;;;;;;;;;;;;;;;22.25;52.21;101626.69;4993037;28;19930;-73
2022/09/02 11:40:13;;;;;;;;;;;;;;;22.21;51.91;101623.38;4980625;28;19948;-73
2022/09/02 11:42:55;;;;;;;;;;;;;;;22.19;52.89;101627.19;5009534;28;19929;-72
2022/09/02 11:45:21;;;;;;;;;;;;;;;22.16;54.74;101616.69;4978489;28;19926;-72
2022/09/02 11:48:00;;;;;;;;;;;;;;;22.18;52.58;101612.84;4980216;28;19996;-73
2022/09/02 11:50:25;;;;;;;;;;;;;;;22.19;52.64;101616.41;5011753;28;20025;-71
2022/09/02 11:53:09;;;;;;;;;;;;;;;22.19;52.79;101609.19;4979397;28;19925;-72
2022/09/02 11:55:36;;;;;;;;;;;;;;;22.25;53.95;101605.13;4980266;28;19930;-72
2022/09/02 11:58:01;;;;;;;;;;;;;;;22.33;52.69;101608.00;5011448;28;19996;-72
2022/09/02 12:00:31;;;;;;;;;;;;;;;22.37;52.86;101604.09;5010849;28;20527;-72
2022/09/02 12:02:57;;;;;;;;;;;;;;;22.37;52.86;101614.88;5011428;28;19929;-72
2022/09/02 12:05:29;;;;;;;;;;;;;;;22.35;52.75;101608.72;4979792;28;19972;-72
2022/09/02 12:07:55;;;;;;;;;;;;;;;22.38;51.77;101610.31;4980172;28;19925;-72
2022/09/02 12:10:39;;;;;;;;;;;;;;;22.39;51.94;101601.28;5011041;28;20384;-71
2022/09/02 12:13:06;;;;;;;;;;;;;;;22.44;51.32;101598.19;4976147;28;20691;-72
2022/09/02 12:15:34;;;;;;;;;;;;;;;22.48;52.54;101603.19;4990489;28;19952;-72
2022/09/02 12:18:09;;;;;;;;;;;;;;;22.51;51.18;101591.31;5010638;28;19930;-72
2022/09/02 12:20:35;;;;;;;;;;;;;;;22.53;51.04;101594.72;4978150;28;19932;-72
2022/09/02 12:23:00;;;;;;;;;;;;;;;22.55;50.90;101584.66;4979162;28;19925;-79
2022/09/02 12:25:27;;;;;;;;;;;;;;;22.57;51.83;101582.69;5010552;28;20389;-76
2022/09/02 12:28:19;;;;;;;;;;;;;;;22.61;52.46;101576.03;4979399;28;20281;-78
2022/09/02 12:31:13;;;;;;;;;;;;;;;22.61;52.26;101573.34;4976585;28;19926;-78
2022/09/02 12:33:40;;;;;;;;;;;;;;;22.63;51.08;101576.78;4980090;28;20460;-79
2022/09/02 12:36:06;;;;;;;;;;;;;;;22.65;52.41;101565.81;4980174;28;19926;-79
2022/09/02 12:38:34;;;;;;;;;;;;;;;22.67;52.73;101560.31;5010582;28;19979;-78